TNZ78 NZCH-NZAA
Flight info
| Callsign | TNZ78 |
|---|---|
| Flight time | 1h 9m |
| Altitude | 37000 |
| Route | GLENN Y175 OMKUN Y655 POKOM Q277 DAVEE |
| Aircraft | B738/M-SDE2E3FGHIRWXY/LB1 |
Departure
| Time | 2026-05-06 08:44 |
|---|---|
| Airport | Christchurch International Airport (NZCH) |
Arrival
| Time | 2026-05-06 09:53 |
|---|---|
| Airport | Auckland International Airport (NZAA) |
| Time | Latitude | Longitude | Altitude | Speed | Heading |
|---|---|---|---|---|---|
| 2026-05-06 07:59 | -43.49675 | 172.53865 | 106 ft | 0 kts | 128° |
| 2026-05-06 08:33 | -43.49675 | 172.53866 | 107 ft | 1 kts | 128° |
| 2026-05-06 08:33 | -43.49675 | 172.53877 | 105 ft | 1 kts | 74° |
| 2026-05-06 08:33 | -43.49667 | 172.53877 | 106 ft | 1 kts | 342° |
| 2026-05-06 08:34 | -43.49658 | 172.53860 | 105 ft | 4 kts | 306° |
| 2026-05-06 08:34 | -43.49595 | 172.53882 | 107 ft | 8 kts | 39° |
| 2026-05-06 08:34 | -43.49547 | 172.53938 | 106 ft | 10 kts | 41° |
| 2026-05-06 08:35 | -43.49532 | 172.53956 | 106 ft | 4 kts | 41° |
| 2026-05-06 08:35 | -43.49494 | 172.54001 | 103 ft | 10 kts | 40° |
| 2026-05-06 08:35 | -43.49425 | 172.54055 | 103 ft | 12 kts | 351° |
| 2026-05-06 08:35 | -43.49366 | 172.53977 | 106 ft | 12 kts | 310° |
| 2026-05-06 08:36 | -43.49314 | 172.53892 | 107 ft | 11 kts | 310° |
| 2026-05-06 08:36 | -43.49264 | 172.53809 | 108 ft | 11 kts | 306° |
| 2026-05-06 08:36 | -43.49216 | 172.53728 | 111 ft | 11 kts | 310° |
| 2026-05-06 08:36 | -43.49168 | 172.53650 | 111 ft | 10 kts | 310° |
| 2026-05-06 08:37 | -43.49121 | 172.53575 | 108 ft | 10 kts | 310° |
| 2026-05-06 08:37 | -43.49076 | 172.53502 | 109 ft | 10 kts | 310° |
| 2026-05-06 08:37 | -43.49037 | 172.53427 | 111 ft | 10 kts | 287° |
| 2026-05-06 08:37 | -43.49072 | 172.53354 | 109 ft | 10 kts | 220° |
| 2026-05-06 08:38 | -43.49123 | 172.53296 | 113 ft | 9 kts | 219° |
| 2026-05-06 08:38 | -43.49171 | 172.53241 | 112 ft | 9 kts | 219° |
| 2026-05-06 08:38 | -43.49219 | 172.53186 | 114 ft | 9 kts | 220° |
| 2026-05-06 08:38 | -43.49265 | 172.53132 | 116 ft | 9 kts | 220° |
| 2026-05-06 08:39 | -43.49310 | 172.53080 | 120 ft | 8 kts | 220° |
| 2026-05-06 08:39 | -43.49354 | 172.53029 | 122 ft | 8 kts | 220° |
| 2026-05-06 08:39 | -43.49396 | 172.52980 | 122 ft | 8 kts | 220° |
| 2026-05-06 08:39 | -43.49437 | 172.52933 | 122 ft | 8 kts | 220° |
| 2026-05-06 08:40 | -43.49477 | 172.52887 | 124 ft | 7 kts | 220° |
| 2026-05-06 08:40 | -43.49510 | 172.52837 | 126 ft | 7 kts | 246° |
| 2026-05-06 08:40 | -43.49510 | 172.52771 | 128 ft | 7 kts | 274° |
| 2026-05-06 08:40 | -43.49507 | 172.52713 | 127 ft | 0 kts | 274° |
| 2026-05-06 08:41 | -43.49507 | 172.52712 | 127 ft | 0 kts | 274° |
| 2026-05-06 08:41 | -43.49507 | 172.52711 | 127 ft | 0 kts | 274° |
| 2026-05-06 08:41 | -43.49506 | 172.52700 | 127 ft | 3 kts | 273° |
| 2026-05-06 08:42 | -43.49502 | 172.52650 | 124 ft | 8 kts | 283° |
| 2026-05-06 08:42 | -43.49453 | 172.52583 | 121 ft | 12 kts | 354° |
| 2026-05-06 08:42 | -43.49407 | 172.52618 | 124 ft | 1 kts | 42° |
| 2026-05-06 08:42 | -43.49392 | 172.52637 | 124 ft | 5 kts | 42° |
| 2026-05-06 08:43 | -43.49354 | 172.52684 | 121 ft | 10 kts | 42° |
| 2026-05-06 08:43 | -43.49136 | 172.52936 | 114 ft | 84 kts | 40° |
| 2026-05-06 08:43 | -43.48484 | 172.53695 | 110 ft | 159 kts | 41° |
| 2026-05-06 08:43 | -43.47573 | 172.54798 | 713 ft | 181 kts | 41° |
| 2026-05-06 08:44 | -43.46565 | 172.55993 | 1482 ft | 204 kts | 43° |
| 2026-05-06 08:44 | -43.45882 | 172.57733 | 2285 ft | 209 kts | 74° |
| 2026-05-06 08:44 | -43.45233 | 172.59566 | 2714 ft | 225 kts | 42° |
| 2026-05-06 08:44 | -43.43798 | 172.60432 | 3115 ft | 232 kts | 0° |
| 2026-05-06 08:45 | -43.42208 | 172.60204 | 3720 ft | 234 kts | 353° |
| 2026-05-06 08:45 | -43.40545 | 172.60292 | 4360 ft | 238 kts | 6° |
| 2026-05-06 08:45 | -43.38943 | 172.60815 | 5014 ft | 242 kts | 13° |
| 2026-05-06 08:45 | -43.37345 | 172.61607 | 5620 ft | 246 kts | 17° |
| 2026-05-06 08:46 | -43.35760 | 172.62523 | 6222 ft | 249 kts | 18° |
| 2026-05-06 08:46 | -43.34168 | 172.63497 | 6816 ft | 251 kts | 19° |
| 2026-05-06 08:46 | -43.32539 | 172.64347 | 7374 ft | 250 kts | 12° |
| 2026-05-06 08:46 | -43.30866 | 172.65055 | 7948 ft | 253 kts | 14° |
| 2026-05-06 08:47 | -43.29184 | 172.65791 | 8491 ft | 255 kts | 15° |
| 2026-05-06 08:47 | -43.27485 | 172.66542 | 9052 ft | 257 kts | 15° |
| 2026-05-06 08:47 | -43.25773 | 172.67302 | 9615 ft | 259 kts | 17° |
| 2026-05-06 08:47 | -43.24050 | 172.68068 | 10165 ft | 261 kts | 17° |
| 2026-05-06 08:48 | -43.22320 | 172.68838 | 10693 ft | 262 kts | 17° |
| 2026-05-06 08:48 | -43.20587 | 172.69609 | 11237 ft | 262 kts | 16° |
| 2026-05-06 08:48 | -43.18854 | 172.70380 | 11768 ft | 262 kts | 16° |
| 2026-05-06 08:48 | -43.17117 | 172.71153 | 12298 ft | 263 kts | 15° |
| 2026-05-06 08:49 | -43.15398 | 172.71917 | 12819 ft | 263 kts | 15° |
| 2026-05-06 08:49 | -43.13651 | 172.72693 | 13333 ft | 264 kts | 15° |
| 2026-05-06 08:49 | -43.11901 | 172.73470 | 13871 ft | 265 kts | 15° |
| 2026-05-06 08:49 | -43.10147 | 172.74249 | 14323 ft | 267 kts | 14° |
| 2026-05-06 08:50 | -43.08355 | 172.75043 | 14667 ft | 274 kts | 14° |
| 2026-05-06 08:50 | -43.06471 | 172.75874 | 14753 ft | 294 kts | 14° |
| 2026-05-06 08:50 | -43.04449 | 172.76765 | 14880 ft | 317 kts | 15° |
| 2026-05-06 08:50 | -43.02277 | 172.77724 | 15044 ft | 338 kts | 15° |
| 2026-05-06 08:51 | -42.99979 | 172.78741 | 15302 ft | 354 kts | 15° |
| 2026-05-06 08:51 | -42.97606 | 172.79794 | 15805 ft | 362 kts | 15° |
| 2026-05-06 08:51 | -42.95230 | 172.80849 | 16344 ft | 365 kts | 15° |
| 2026-05-06 08:51 | -42.92805 | 172.81922 | 16855 ft | 369 kts | 14° |
| 2026-05-06 08:52 | -42.90350 | 172.83006 | 17372 ft | 372 kts | 14° |
| 2026-05-06 08:52 | -42.87875 | 172.84097 | 17879 ft | 376 kts | 14° |
| 2026-05-06 08:52 | -42.85395 | 172.85288 | 18368 ft | 381 kts | 16° |
| 2026-05-06 08:52 | -42.82904 | 172.86573 | 18825 ft | 384 kts | 17° |
| 2026-05-06 08:53 | -42.80401 | 172.87895 | 19310 ft | 385 kts | 17° |
| 2026-05-06 08:53 | -42.77902 | 172.89217 | 19789 ft | 387 kts | 17° |
| 2026-05-06 08:53 | -42.75377 | 172.90545 | 20214 ft | 390 kts | 17° |
| 2026-05-06 08:53 | -42.72838 | 172.91870 | 20635 ft | 393 kts | 17° |
| 2026-05-06 08:54 | -42.70273 | 172.93203 | 21066 ft | 395 kts | 17° |
| 2026-05-06 08:54 | -42.67692 | 172.94537 | 21487 ft | 398 kts | 17° |
| 2026-05-06 08:54 | -42.65096 | 172.95877 | 21904 ft | 400 kts | 17° |
| 2026-05-06 08:54 | -42.62479 | 172.97224 | 22300 ft | 403 kts | 17° |
| 2026-05-06 08:55 | -42.59848 | 172.98576 | 22690 ft | 405 kts | 17° |
| 2026-05-06 08:55 | -42.57236 | 172.99918 | 23084 ft | 408 kts | 17° |
| 2026-05-06 08:55 | -42.54566 | 173.01287 | 23474 ft | 410 kts | 17° |
| 2026-05-06 08:55 | -42.51890 | 173.02659 | 23832 ft | 413 kts | 17° |
| 2026-05-06 08:56 | -42.49194 | 173.04040 | 24140 ft | 415 kts | 17° |
| 2026-05-06 08:56 | -42.46484 | 173.05426 | 24448 ft | 418 kts | 17° |
| 2026-05-06 08:56 | -42.43754 | 173.06822 | 24747 ft | 420 kts | 17° |
| 2026-05-06 08:56 | -42.40999 | 173.08229 | 25057 ft | 423 kts | 17° |
| 2026-05-06 08:57 | -42.38251 | 173.09631 | 25353 ft | 426 kts | 17° |
| 2026-05-06 08:57 | -42.35474 | 173.11046 | 25643 ft | 428 kts | 17° |
| 2026-05-06 08:57 | -42.32678 | 173.12470 | 25924 ft | 430 kts | 17° |
| 2026-05-06 08:57 | -42.29866 | 173.13902 | 26223 ft | 433 kts | 17° |
| 2026-05-06 08:58 | -42.27079 | 173.15319 | 26508 ft | 435 kts | 17° |
| 2026-05-06 08:58 | -42.24236 | 173.16762 | 26773 ft | 437 kts | 16° |
| 2026-05-06 08:58 | -42.21349 | 173.18227 | 27054 ft | 439 kts | 16° |
| 2026-05-06 08:58 | -42.18521 | 173.19661 | 27312 ft | 441 kts | 16° |
| 2026-05-06 08:59 | -42.15602 | 173.21139 | 27576 ft | 443 kts | 16° |
| 2026-05-06 08:59 | -42.12749 | 173.22582 | 27831 ft | 445 kts | 16° |
| 2026-05-06 08:59 | -42.09845 | 173.24050 | 28089 ft | 447 kts | 16° |
| 2026-05-06 08:59 | -42.06917 | 173.25528 | 28341 ft | 449 kts | 16° |
| 2026-05-06 09:00 | -42.03986 | 173.27006 | 28578 ft | 451 kts | 16° |
| 2026-05-06 09:00 | -42.01040 | 173.28491 | 28827 ft | 453 kts | 16° |
| 2026-05-06 09:00 | -41.98077 | 173.29983 | 29077 ft | 455 kts | 16° |
| 2026-05-06 09:00 | -41.95108 | 173.31476 | 29313 ft | 456 kts | 16° |
| 2026-05-06 09:01 | -41.92121 | 173.32977 | 29527 ft | 458 kts | 16° |
| 2026-05-06 09:01 | -41.89128 | 173.34479 | 29759 ft | 460 kts | 16° |
| 2026-05-06 09:01 | -41.86163 | 173.35966 | 29971 ft | 462 kts | 16° |
| 2026-05-06 09:01 | -41.83146 | 173.37477 | 30174 ft | 464 kts | 16° |
| 2026-05-06 09:02 | -41.80116 | 173.38994 | 30383 ft | 466 kts | 16° |
| 2026-05-06 09:02 | -41.77070 | 173.40518 | 30573 ft | 467 kts | 16° |
| 2026-05-06 09:02 | -41.74022 | 173.42041 | 30774 ft | 468 kts | 16° |
| 2026-05-06 09:02 | -41.70968 | 173.43565 | 31028 ft | 467 kts | 16° |
| 2026-05-06 09:03 | -41.68224 | 173.44933 | 31277 ft | 466 kts | 16° |
| 2026-05-06 09:03 | -41.65183 | 173.46444 | 31507 ft | 466 kts | 16° |
| 2026-05-06 09:03 | -41.62139 | 173.47953 | 31733 ft | 466 kts | 16° |
| 2026-05-06 09:03 | -41.59099 | 173.49459 | 31974 ft | 466 kts | 16° |
| 2026-05-06 09:04 | -41.56060 | 173.50963 | 32233 ft | 465 kts | 16° |
| 2026-05-06 09:04 | -41.53025 | 173.52465 | 32480 ft | 465 kts | 16° |
| 2026-05-06 09:04 | -41.49988 | 173.53966 | 32689 ft | 465 kts | 16° |
| 2026-05-06 09:04 | -41.46951 | 173.55466 | 32935 ft | 465 kts | 16° |
| 2026-05-06 09:05 | -41.43954 | 173.56946 | 33186 ft | 465 kts | 16° |
| 2026-05-06 09:05 | -41.40923 | 173.58440 | 33414 ft | 464 kts | 16° |
| 2026-05-06 09:05 | -41.37890 | 173.59934 | 33646 ft | 465 kts | 16° |
| 2026-05-06 09:05 | -41.34849 | 173.61430 | 33891 ft | 464 kts | 16° |
| 2026-05-06 09:06 | -41.31818 | 173.62920 | 34132 ft | 464 kts | 16° |
| 2026-05-06 09:06 | -41.28784 | 173.64410 | 34340 ft | 464 kts | 15° |
| 2026-05-06 09:06 | -41.25752 | 173.65897 | 34520 ft | 464 kts | 16° |
| 2026-05-06 09:06 | -41.22727 | 173.67380 | 34762 ft | 463 kts | 16° |
| 2026-05-06 09:07 | -41.19707 | 173.68860 | 35006 ft | 462 kts | 16° |
| 2026-05-06 09:07 | -41.16692 | 173.70335 | 35214 ft | 461 kts | 16° |
| 2026-05-06 09:07 | -41.13676 | 173.71808 | 35403 ft | 461 kts | 16° |
| 2026-05-06 09:07 | -41.10705 | 173.73258 | 35599 ft | 461 kts | 17° |
| 2026-05-06 09:08 | -41.07664 | 173.74742 | 35831 ft | 460 kts | 17° |
| 2026-05-06 09:08 | -41.04703 | 173.76184 | 36031 ft | 459 kts | 17° |
| 2026-05-06 09:08 | -41.01706 | 173.77643 | 36227 ft | 459 kts | 17° |
| 2026-05-06 09:08 | -40.98711 | 173.79099 | 36428 ft | 458 kts | 17° |
| 2026-05-06 09:09 | -40.95715 | 173.80554 | 36634 ft | 458 kts | 17° |
| 2026-05-06 09:09 | -40.92729 | 173.82004 | 36820 ft | 457 kts | 17° |
| 2026-05-06 09:09 | -40.89737 | 173.83454 | 37000 ft | 457 kts | 17° |
| 2026-05-06 09:09 | -40.86753 | 173.84900 | 37200 ft | 456 kts | 17° |
| 2026-05-06 09:10 | -40.83769 | 173.86344 | 37336 ft | 457 kts | 17° |
| 2026-05-06 09:10 | -40.77779 | 173.89237 | 37331 ft | 458 kts | 17° |
| 2026-05-06 09:11 | -40.71814 | 173.92116 | 37325 ft | 454 kts | 17° |
| 2026-05-06 09:11 | -40.65892 | 173.94967 | 37327 ft | 451 kts | 17° |
| 2026-05-06 09:12 | -40.60040 | 173.97779 | 37330 ft | 449 kts | 17° |
| 2026-05-06 09:12 | -40.54167 | 174.00595 | 37336 ft | 449 kts | 17° |
| 2026-05-06 09:13 | -40.48279 | 174.03413 | 37337 ft | 450 kts | 17° |
| 2026-05-06 09:13 | -40.42382 | 174.06231 | 37337 ft | 452 kts | 17° |
| 2026-05-06 09:14 | -40.36494 | 174.09040 | 37341 ft | 454 kts | 17° |
| 2026-05-06 09:14 | -40.30557 | 174.11866 | 37339 ft | 457 kts | 17° |
| 2026-05-06 09:15 | -40.24565 | 174.14722 | 37336 ft | 459 kts | 17° |
| 2026-05-06 09:15 | -40.18549 | 174.17590 | 37341 ft | 461 kts | 17° |
| 2026-05-06 09:16 | -40.12505 | 174.20466 | 37341 ft | 462 kts | 17° |
| 2026-05-06 09:16 | -40.07477 | 174.22855 | 37338 ft | 463 kts | 17° |
| 2026-05-06 09:17 | -40.01429 | 174.25722 | 37343 ft | 463 kts | 17° |
| 2026-05-06 09:17 | -39.95368 | 174.28580 | 37339 ft | 462 kts | 17° |
| 2026-05-06 09:18 | -39.88337 | 174.31874 | 37341 ft | 462 kts | 17° |
| 2026-05-06 09:18 | -39.82297 | 174.34700 | 37343 ft | 461 kts | 17° |
| 2026-05-06 09:19 | -39.76257 | 174.37523 | 37346 ft | 460 kts | 17° |
| 2026-05-06 09:19 | -39.70227 | 174.40336 | 37349 ft | 460 kts | 17° |
| 2026-05-06 09:20 | -39.65224 | 174.42666 | 37353 ft | 460 kts | 17° |
| 2026-05-06 09:20 | -39.59202 | 174.45467 | 37360 ft | 460 kts | 17° |
| 2026-05-06 09:21 | -39.53173 | 174.48265 | 37355 ft | 460 kts | 17° |
| 2026-05-06 09:21 | -39.47075 | 174.50708 | 37351 ft | 456 kts | 6° |
| 2026-05-06 09:22 | -39.40836 | 174.51887 | 37356 ft | 456 kts | 5° |
| 2026-05-06 09:22 | -39.34541 | 174.53007 | 37366 ft | 457 kts | 5° |
| 2026-05-06 09:23 | -39.28221 | 174.54197 | 37374 ft | 458 kts | 5° |
| 2026-05-06 09:23 | -39.21899 | 174.55414 | 37191 ft | 463 kts | 5° |
| 2026-05-06 09:23 | -39.18695 | 174.56030 | 36719 ft | 466 kts | 5° |
| 2026-05-06 09:24 | -39.15488 | 174.56647 | 36118 ft | 465 kts | 5° |
| 2026-05-06 09:24 | -39.12287 | 174.57260 | 35516 ft | 465 kts | 5° |
| 2026-05-06 09:24 | -39.09097 | 174.57868 | 34994 ft | 463 kts | 5° |
| 2026-05-06 09:24 | -39.05960 | 174.58463 | 34530 ft | 460 kts | 5° |
| 2026-05-06 09:25 | -39.02800 | 174.59061 | 34044 ft | 457 kts | 5° |
| 2026-05-06 09:25 | -38.99665 | 174.59654 | 33565 ft | 454 kts | 5° |
| 2026-05-06 09:25 | -38.96550 | 174.60243 | 33114 ft | 450 kts | 5° |
| 2026-05-06 09:25 | -38.93467 | 174.60825 | 32668 ft | 446 kts | 5° |
| 2026-05-06 09:26 | -38.90410 | 174.61402 | 32247 ft | 442 kts | 5° |
| 2026-05-06 09:26 | -38.87371 | 174.61975 | 31824 ft | 439 kts | 6° |
| 2026-05-06 09:26 | -38.84363 | 174.62542 | 31405 ft | 435 kts | 6° |
| 2026-05-06 09:26 | -38.81374 | 174.63105 | 30994 ft | 432 kts | 6° |
| 2026-05-06 09:27 | -38.78405 | 174.63663 | 30579 ft | 429 kts | 6° |
| 2026-05-06 09:27 | -38.75458 | 174.64217 | 30118 ft | 427 kts | 6° |
| 2026-05-06 09:27 | -38.72532 | 174.64766 | 29662 ft | 423 kts | 6° |
| 2026-05-06 09:27 | -38.69636 | 174.65310 | 29235 ft | 418 kts | 6° |
| 2026-05-06 09:28 | -38.66857 | 174.65832 | 28811 ft | 415 kts | 6° |
| 2026-05-06 09:28 | -38.64076 | 174.66352 | 28406 ft | 411 kts | 6° |
| 2026-05-06 09:28 | -38.61255 | 174.66880 | 27983 ft | 408 kts | 6° |
| 2026-05-06 09:28 | -38.58461 | 174.67403 | 27568 ft | 405 kts | 6° |
| 2026-05-06 09:29 | -38.55687 | 174.67922 | 27155 ft | 402 kts | 7° |
| 2026-05-06 09:29 | -38.52930 | 174.68437 | 26749 ft | 399 kts | 7° |
| 2026-05-06 09:29 | -38.50200 | 174.68946 | 26347 ft | 396 kts | 7° |
| 2026-05-06 09:29 | -38.47477 | 174.69454 | 25945 ft | 393 kts | 7° |
| 2026-05-06 09:30 | -38.44775 | 174.69958 | 25547 ft | 391 kts | 7° |
| 2026-05-06 09:30 | -38.42121 | 174.70452 | 25157 ft | 389 kts | 7° |
| 2026-05-06 09:30 | -38.39451 | 174.70948 | 24759 ft | 387 kts | 7° |
| 2026-05-06 09:30 | -38.36791 | 174.71443 | 24366 ft | 385 kts | 7° |
| 2026-05-06 09:31 | -38.34146 | 174.71934 | 23947 ft | 384 kts | 7° |
| 2026-05-06 09:31 | -38.31508 | 174.72424 | 23497 ft | 382 kts | 7° |
| 2026-05-06 09:31 | -38.28892 | 174.72910 | 23067 ft | 379 kts | 7° |
| 2026-05-06 09:31 | -38.26287 | 174.73393 | 22659 ft | 376 kts | 7° |
| 2026-05-06 09:32 | -38.23700 | 174.73873 | 22264 ft | 373 kts | 7° |
| 2026-05-06 09:32 | -38.21139 | 174.74347 | 21879 ft | 370 kts | 7° |
| 2026-05-06 09:32 | -38.18594 | 174.74818 | 21490 ft | 368 kts | 7° |
| 2026-05-06 09:32 | -38.16072 | 174.75284 | 21109 ft | 365 kts | 7° |
| 2026-05-06 09:33 | -38.13597 | 174.75742 | 20736 ft | 363 kts | 6° |
| 2026-05-06 09:33 | -38.11110 | 174.76201 | 20360 ft | 360 kts | 6° |
| 2026-05-06 09:33 | -38.08632 | 174.76658 | 19983 ft | 358 kts | 6° |
| 2026-05-06 09:33 | -38.06167 | 174.77112 | 19609 ft | 356 kts | 6° |
| 2026-05-06 09:34 | -38.03722 | 174.77563 | 19240 ft | 355 kts | 6° |
| 2026-05-06 09:34 | -38.01284 | 174.78012 | 18871 ft | 353 kts | 6° |
| 2026-05-06 09:34 | -37.98860 | 174.78458 | 18482 ft | 351 kts | 6° |
| 2026-05-06 09:34 | -37.96566 | 174.78880 | 18082 ft | 349 kts | 6° |
| 2026-05-06 09:35 | -37.94166 | 174.79321 | 17687 ft | 347 kts | 6° |
| 2026-05-06 09:35 | -37.91783 | 174.79759 | 17310 ft | 344 kts | 6° |
| 2026-05-06 09:35 | -37.89425 | 174.80192 | 16947 ft | 341 kts | 6° |
| 2026-05-06 09:35 | -37.87085 | 174.80600 | 16584 ft | 338 kts | 4° |
| 2026-05-06 09:36 | -37.84772 | 174.80755 | 16383 ft | 329 kts | 359° |
| 2026-05-06 09:36 | -37.82484 | 174.80780 | 16033 ft | 327 kts | 358° |
| 2026-05-06 09:36 | -37.80217 | 174.80774 | 15687 ft | 324 kts | 358° |
| 2026-05-06 09:36 | -37.77965 | 174.80773 | 15346 ft | 322 kts | 359° |
| 2026-05-06 09:37 | -37.75730 | 174.80784 | 14998 ft | 321 kts | 359° |
| 2026-05-06 09:37 | -37.73507 | 174.80804 | 14657 ft | 319 kts | 359° |
| 2026-05-06 09:37 | -37.71294 | 174.80829 | 14229 ft | 319 kts | 359° |
| 2026-05-06 09:37 | -37.69037 | 174.80858 | 13607 ft | 325 kts | 360° |
| 2026-05-06 09:38 | -37.66781 | 174.80889 | 13179 ft | 324 kts | 360° |
| 2026-05-06 09:38 | -37.64557 | 174.80920 | 12802 ft | 322 kts | 360° |
| 2026-05-06 09:38 | -37.62330 | 174.80952 | 12438 ft | 319 kts | 360° |
| 2026-05-06 09:38 | -37.60120 | 174.80983 | 12082 ft | 316 kts | 360° |
| 2026-05-06 09:39 | -37.57924 | 174.81013 | 11748 ft | 313 kts | 360° |
| 2026-05-06 09:39 | -37.55754 | 174.81041 | 11419 ft | 310 kts | 360° |
| 2026-05-06 09:39 | -37.53602 | 174.81068 | 11079 ft | 308 kts | 360° |
| 2026-05-06 09:39 | -37.51465 | 174.81095 | 10734 ft | 306 kts | 360° |
| 2026-05-06 09:40 | -37.49340 | 174.81122 | 10431 ft | 303 kts | 360° |
| 2026-05-06 09:40 | -37.47269 | 174.81148 | 10308 ft | 293 kts | 360° |
| 2026-05-06 09:40 | -37.43313 | 174.81199 | 10023 ft | 276 kts | 360° |
| 2026-05-06 09:41 | -37.41405 | 174.81223 | 9775 ft | 273 kts | 360° |
| 2026-05-06 09:41 | -37.39519 | 174.81246 | 9511 ft | 269 kts | 360° |
| 2026-05-06 09:41 | -37.37653 | 174.81270 | 9227 ft | 267 kts | 0° |
| 2026-05-06 09:41 | -37.35800 | 174.81293 | 8949 ft | 266 kts | 0° |
| 2026-05-06 09:42 | -37.33949 | 174.81316 | 8670 ft | 264 kts | 0° |
| 2026-05-06 09:42 | -37.32115 | 174.81339 | 8394 ft | 263 kts | 0° |
| 2026-05-06 09:42 | -37.30316 | 174.81362 | 8116 ft | 261 kts | 0° |
| 2026-05-06 09:42 | -37.28506 | 174.81332 | 7833 ft | 260 kts | 351° |
| 2026-05-06 09:43 | -37.26842 | 174.80507 | 7549 ft | 259 kts | 325° |
| 2026-05-06 09:43 | -37.25603 | 174.78887 | 7300 ft | 259 kts | 304° |
| 2026-05-06 09:43 | -37.24702 | 174.76938 | 7048 ft | 258 kts | 301° |
| 2026-05-06 09:43 | -37.23842 | 174.74963 | 6774 ft | 257 kts | 300° |
| 2026-05-06 09:44 | -37.22982 | 174.72985 | 6477 ft | 257 kts | 300° |
| 2026-05-06 09:44 | -37.22125 | 174.71027 | 6205 ft | 255 kts | 301° |
| 2026-05-06 09:44 | -37.21281 | 174.69109 | 5941 ft | 254 kts | 301° |
| 2026-05-06 09:44 | -37.20427 | 174.67181 | 5676 ft | 252 kts | 301° |
| 2026-05-06 09:45 | -37.19574 | 174.65261 | 5410 ft | 251 kts | 301° |
| 2026-05-06 09:45 | -37.18725 | 174.63356 | 5208 ft | 247 kts | 301° |
| 2026-05-06 09:45 | -37.17899 | 174.61505 | 5088 ft | 239 kts | 302° |
| 2026-05-06 09:45 | -37.17103 | 174.59722 | 4977 ft | 230 kts | 301° |
| 2026-05-06 09:46 | -37.16321 | 174.58013 | 4882 ft | 221 kts | 308° |
| 2026-05-06 09:46 | -37.15183 | 174.56819 | 4701 ft | 210 kts | 336° |
| 2026-05-06 09:46 | -37.13860 | 174.56173 | 4516 ft | 199 kts | 343° |
| 2026-05-06 09:46 | -37.12583 | 174.55640 | 4294 ft | 188 kts | 343° |
| 2026-05-06 09:47 | -37.11387 | 174.55142 | 4032 ft | 181 kts | 343° |
| 2026-05-06 09:47 | -37.10208 | 174.54647 | 3801 ft | 171 kts | 343° |
| 2026-05-06 09:47 | -37.09054 | 174.54535 | 3713 ft | 168 kts | 21° |
| 2026-05-06 09:47 | -37.08251 | 174.55508 | 3627 ft | 162 kts | 57° |
| 2026-05-06 09:48 | -37.07687 | 174.56718 | 3398 ft | 157 kts | 55° |
| 2026-05-06 09:48 | -37.07196 | 174.57906 | 3211 ft | 152 kts | 59° |
| 2026-05-06 09:48 | -37.06733 | 174.59075 | 3016 ft | 149 kts | 59° |
| 2026-05-06 09:48 | -37.06327 | 174.60250 | 2810 ft | 144 kts | 63° |
| 2026-05-06 09:49 | -37.05968 | 174.61429 | 2623 ft | 145 kts | 64° |
| 2026-05-06 09:49 | -37.05641 | 174.62583 | 2462 ft | 135 kts | 64° |
| 2026-05-06 09:49 | -37.05339 | 174.63655 | 2267 ft | 127 kts | 64° |
| 2026-05-06 09:49 | -37.05048 | 174.64702 | 2090 ft | 128 kts | 64° |
| 2026-05-06 09:50 | -37.04757 | 174.65754 | 1912 ft | 130 kts | 65° |
| 2026-05-06 09:50 | -37.04470 | 174.66794 | 1734 ft | 121 kts | 65° |
| 2026-05-06 09:50 | -37.04203 | 174.67760 | 1577 ft | 113 kts | 65° |
| 2026-05-06 09:50 | -37.03951 | 174.68670 | 1437 ft | 110 kts | 67° |
| 2026-05-06 09:51 | -37.03702 | 174.69577 | 1295 ft | 110 kts | 65° |
| 2026-05-06 09:51 | -37.03449 | 174.70485 | 1139 ft | 111 kts | 66° |
| 2026-05-06 09:51 | -37.03193 | 174.71414 | 1011 ft | 115 kts | 68° |
| 2026-05-06 09:51 | -37.02933 | 174.72360 | 836 ft | 115 kts | 67° |
| 2026-05-06 09:52 | -37.02671 | 174.73303 | 671 ft | 114 kts | 69° |
| 2026-05-06 09:52 | -37.02413 | 174.74240 | 543 ft | 116 kts | 71° |
| 2026-05-06 09:52 | -37.02146 | 174.75210 | 378 ft | 118 kts | 71° |
| 2026-05-06 09:52 | -37.01879 | 174.76182 | 199 ft | 117 kts | 70° |
| 2026-05-06 09:53 | -37.01621 | 174.77116 | 53 ft | 114 kts | 70° |
| 2026-05-06 09:53 | -37.01381 | 174.77969 | 26 ft | 83 kts | 70° |
| 2026-05-06 09:53 | -37.01265 | 174.78403 | 27 ft | 22 kts | 72° |
| 2026-05-06 09:53 | -37.01250 | 174.78461 | 26 ft | 5 kts | 71° |
| 2026-05-06 09:54 | -37.01239 | 174.78501 | 27 ft | 5 kts | 71° |
| 2026-05-06 09:54 | -37.01224 | 174.78556 | 28 ft | 8 kts | 71° |
| 2026-05-06 09:54 | -37.01201 | 174.78640 | 24 ft | 13 kts | 71° |
| 2026-05-06 09:54 | -37.01167 | 174.78763 | 27 ft | 17 kts | 70° |
| 2026-05-06 09:55 | -37.01107 | 174.78908 | 26 ft | 20 kts | 52° |
| 2026-05-06 09:55 | -37.01009 | 174.79024 | 24 ft | 19 kts | 40° |
| 2026-05-06 09:55 | -37.00972 | 174.79063 | 25 ft | 0 kts | 40° |
| 2026-05-06 09:55 | -37.00972 | 174.79064 | 25 ft | 0 kts | 40° |
| 2026-05-06 09:56 | -37.00968 | 174.79067 | 24 ft | 1 kts | 40° |
| 2026-05-06 09:56 | -37.00956 | 174.79081 | 25 ft | 4 kts | 41° |
| 2026-05-06 09:56 | -37.00927 | 174.79113 | 26 ft | 7 kts | 43° |
| 2026-05-06 09:56 | -37.00882 | 174.79172 | 24 ft | 11 kts | 50° |
| 2026-05-06 09:57 | -37.00838 | 174.79258 | 24 ft | 12 kts | 65° |
| 2026-05-06 09:57 | -37.00810 | 174.79356 | 27 ft | 12 kts | 71° |
| 2026-05-06 09:57 | -37.00784 | 174.79451 | 24 ft | 11 kts | 71° |
| 2026-05-06 09:57 | -37.00758 | 174.79543 | 25 ft | 11 kts | 71° |
| 2026-05-06 09:58 | -37.00733 | 174.79634 | 25 ft | 11 kts | 71° |
| 2026-05-06 09:58 | -37.00688 | 174.79696 | 29 ft | 10 kts | 2° |
| 2026-05-06 09:58 | -37.00624 | 174.79715 | 24 ft | 10 kts | 57° |
| 2026-05-06 09:58 | -37.00600 | 174.79797 | 24 ft | 10 kts | 71° |
| 2026-05-06 09:59 | -37.00577 | 174.79878 | 27 ft | 10 kts | 70° |
| 2026-05-06 09:59 | -37.00547 | 174.79952 | 27 ft | 9 kts | 60° |
| 2026-05-06 09:59 | -37.00522 | 174.80026 | 24 ft | 9 kts | 71° |
| 2026-05-06 09:59 | -37.00502 | 174.80101 | 27 ft | 9 kts | 71° |
| 2026-05-06 10:00 | -37.00482 | 174.80173 | 24 ft | 9 kts | 71° |
| 2026-05-06 10:00 | -37.00453 | 174.80236 | 27 ft | 8 kts | 27° |
| 2026-05-06 10:00 | -37.00396 | 174.80221 | 26 ft | 8 kts | 341° |
| 2026-05-06 10:00 | -37.00382 | 174.80177 | 26 ft | 0 kts | 249° |
| 2026-05-06 10:01 | -37.00383 | 174.80174 | 24 ft | 1 kts | 249° |
| 2026-05-06 10:01 | -37.00385 | 174.80166 | 24 ft | 0 kts | 250° |